Time;durP1;ratioP1;P1;durP2;ratioP2;P2;SDS_P1;SDS_P2;PMS_P1;PMS_P2;Temp;Humidity;BMP_temperature;BMP_pressure;BME280_temperature;BME280_humidity;BME280_pressure;Samples;Min_cycle;Max_cycle;Signal;HPM_P1;HPM_P2
2021/09/26 00:05:50;;;;;;;17.1;13.8;;;;;;;16.02;100;98930.86;;;;
2021/09/26 00:15:49;;;;;;;19.9;16.7;;;;;;;15.97;100;98938.41;;;;
2021/09/26 00:25:51;;;;;;;16.8;15;;;;;;;15.96;100;98931.41;;;;
2021/09/26 00:35:49;;;;;;;19.5;13.5;;;;;;;15.83;100;98925.11;;;;
2021/09/26 00:45:49;;;;;;;23;16.2;;;;;;;15.77;100;98939.23;;;;
2021/09/26 00:55:48;;;;;;;21.3;16.3;;;;;;;15.8;100;98933.13;;;;
2021/09/26 01:05:48;;;;;;;19;16.3;;;;;;;15.88;100;98926.83;;;;
2021/09/26 01:15:48;;;;;;;23.1;16.5;;;;;;;15.91;100;98939.75;;;;
2021/09/26 01:25:48;;;;;;;17.9;16.1;;;;;;;15.86;100;98937.26;;;;
2021/09/26 01:35:48;;;;;;;14.5;13;;;;;;;15.81;100;98924.66;;;;
2021/09/26 01:45:47;;;;;;;13.8;12.1;;;;;;;15.79;100;98926.13;;;;
2021/09/26 01:55:47;;;;;;;12.2;10.7;;;;;;;15.68;100;98927.66;;;;
2021/09/26 02:05:47;;;;;;;16.8;12.8;;;;;;;15.67;100;98935;;;;
2021/09/26 02:15:51;;;;;;;16.4;14.6;;;;;;;15.64;100;98945.73;;;;
2021/09/26 02:25:49;;;;;;;15.2;13.1;;;;;;;15.53;100;98950.77;;;;
2021/09/26 02:35:49;;;;;;;16.3;12.5;;;;;;;15.27;100;98947.42;;;;
2021/09/26 02:45:52;;;;;;;17;13.2;;;;;;;14.89;100;98958.33;;;;
2021/09/26 02:55:52;;;;;;;16.3;13.8;;;;;;;14.73;100;98949.92;;;;
2021/09/26 03:05:45;;;;;;;12.4;10.6;;;;;;;14.5;100;98964.84;;;;
2021/09/26 03:15:44;;;;;;;16;14.3;;;;;;;14.52;100;98971.53;;;;
2021/09/26 03:25:44;;;;;;;18.5;13.2;;;;;;;14.48;100;98961.65;;;;
2021/09/26 03:35:43;;;;;;;18.8;10.8;;;;;;;14.19;100;98964.25;;;;
2021/09/26 03:45:49;;;;;;;12;10.7;;;;;;;14.16;100;98971.09;;;;
2021/09/26 03:55:42;;;;;;;10.8;8.4;;;;;;;14;100;98970.8;;;;
2021/09/26 04:05:42;;;;;;;18.5;10.8;;;;;;;13.86;100;98972.08;;;;
2021/09/26 04:15:41;;;;;;;14.4;11;;;;;;;13.79;100;98975.27;;;;
2021/09/26 04:25:41;;;;;;;22.1;10.3;;;;;;;13.66;100;98964.59;;;;
2021/09/26 04:35:40;;;;;;;12.7;11.3;;;;;;;13.59;100;98982.13;;;;
2021/09/26 04:45:39;;;;;;;15.4;10.4;;;;;;;13.77;100;98980.22;;;;
2021/09/26 04:55:39;;;;;;;14.3;9.8;;;;;;;13.85;100;98987.53;;;;
2021/09/26 05:05:38;;;;;;;13.5;12.1;;;;;;;14.06;100;98990.4;;;;
2021/09/26 05:15:38;;;;;;;13;11;;;;;;;14.32;100;98999.31;;;;
2021/09/26 05:25:37;;;;;;;12;9.3;;;;;;;14.45;100;99000.27;;;;
2021/09/26 05:35:37;;;;;;;12.6;11.3;;;;;;;14.65;100;99006.94;;;;
2021/09/26 05:45:36;;;;;;;14.2;11.8;;;;;;;14.84;100;99023.63;;;;
2021/09/26 05:55:36;;;;;;;19.2;15.4;;;;;;;15.06;100;99018.73;;;;
2021/09/26 06:05:36;;;;;;;18.3;15.6;;;;;;;15.33;100;99013.99;;;;
2021/09/26 06:15:35;;;;;;;16.5;14.8;;;;;;;15.62;100;99019.42;;;;
2021/09/26 06:25:35;;;;;;;17.6;13.6;;;;;;;16.05;100;99028.07;;;;
2021/09/26 06:35:35;;;;;;;21;16.1;;;;;;;16.55;100;99040.75;;;;
2021/09/26 06:45:34;;;;;;;20.1;18.3;;;;;;;16.97;100;99042.22;;;;
2021/09/26 06:55:34;;;;;;;13.7;12.1;;;;;;;17.44;100;99058.95;;;;
2021/09/26 07:05:34;;;;;;;15.8;12.1;;;;;;;17.91;100;99059.27;;;;
2021/09/26 07:15:34;;;;;;;16.1;12.2;;;;;;;18.25;100;99060.67;;;;
2021/09/26 07:25:34;;;;;;;24.6;11.1;;;;;;;18.62;100;99066;;;;
2021/09/26 07:45:35;;;;;;;15.5;12;;;;;;;19.32;100;99088.92;;;;
2021/09/26 07:55:35;;;;;;;13.2;11.7;;;;;;;19.35;100;99083.55;;;;
2021/09/26 08:05:35;;;;;;;12.8;10;;;;;;;18.88;100;99079.99;;;;
2021/09/26 08:15:35;;;;;;;12.4;8.8;;;;;;;18.85;100;99081.46;;;;
2021/09/26 08:25:35;;;;;;;8;6.8;;;;;;;19.19;100;99082.76;;;;
2021/09/26 08:35:36;;;;;;;9;7.1;;;;;;;19.1;100;99074.72;;;;
2021/09/26 08:45:36;;;;;;;8.6;6.4;;;;;;;19.82;100;99085.47;;;;
2021/09/26 08:55:36;;;;;;;7.4;5.6;;;;;;;19.96;100;99083.03;;;;
2021/09/26 09:05:39;;;;;;;8.9;5.8;;;;;;;20.04;100;99082.05;;;;
2021/09/26 09:25:41;;;;;;;11.4;5.2;;;;;;;20.58;100;99069.13;;;;
2021/09/26 09:35:37;;;;;;;11.8;5.6;;;;;;;21.22;100;99064.05;;;;
2021/09/26 09:45:37;;;;;;;6.8;4;;;;;;;21.64;100;99064.74;;;;
2021/09/26 09:55:38;;;;;;;6;4;;;;;;;21.75;100;99060.21;;;;
2021/09/26 10:05:39;;;;;;;7.4;5;;;;;;;21.25;100;99066.06;;;;
2021/09/26 10:15:39;;;;;;;7.9;4.7;;;;;;;21.37;100;99069.42;;;;
2021/09/26 10:25:39;;;;;;;9.1;4.9;;;;;;;21.8;100;99067.31;;;;
2021/09/26 10:35:40;;;;;;;9.8;5.4;;;;;;;21.88;100;99055.28;;;;
2021/09/26 10:45:40;;;;;;;8.6;5.5;;;;;;;22.11;100;99052.51;;;;
2021/09/26 10:55:41;;;;;;;9.5;5.1;;;;;;;22.48;100;99042.37;;;;
2021/09/26 11:05:42;;;;;;;5.8;4.6;;;;;;;23.06;100;99040.64;;;;
2021/09/26 11:15:42;;;;;;;7.5;5.9;;;;;;;22.54;100;99036.16;;;;
2021/09/26 11:25:43;;;;;;;8.8;5.6;;;;;;;22.7;100;99021.45;;;;
2021/09/26 11:35:44;;;;;;;7.1;5.3;;;;;;;22.82;100;99021.95;;;;
2021/09/26 11:45:44;;;;;;;8.8;5.5;;;;;;;22.73;100;99006.95;;;;
2021/09/26 11:55:45;;;;;;;9.3;5.6;;;;;;;23.01;100;98996.22;;;;
2021/09/26 12:05:46;;;;;;;10.4;6.9;;;;;;;22.51;100;98997.66;;;;
2021/09/26 12:15:46;;;;;;;9.1;6.3;;;;;;;22.7;100;99000.23;;;;
2021/09/26 12:25:47;;;;;;;11.7;6.7;;;;;;;22.98;100;98978.5;;;;
2021/09/26 12:35:48;;;;;;;9.2;6.3;;;;;;;22.98;100;98974.97;;;;
2021/09/26 12:45:49;;;;;;;10.1;6.1;;;;;;;23.21;100;98980.27;;;;
2021/09/26 12:55:49;;;;;;;8.5;5.6;;;;;;;23.08;100;98974.29;;;;
2021/09/26 13:05:50;;;;;;;9.1;7;;;;;;;23.35;100;98963.88;;;;
2021/09/26 13:15:51;;;;;;;8.8;5.2;;;;;;;23.13;100;98971.17;;;;
2021/09/26 13:25:51;;;;;;;8.4;4.9;;;;;;;23.53;100;98975.81;;;;
2021/09/26 13:35:52;;;;;;;11.3;5.3;;;;;;;23.11;100;98967.23;;;;
2021/09/26 13:45:53;;;;;;;6.4;4.5;;;;;;;23.26;100;98961.44;;;;
2021/09/26 13:55:54;;;;;;;6.6;4.3;;;;;;;23.53;100;98959.3;;;;
2021/09/26 14:05:54;;;;;;;7.4;5;;;;;;;22.55;100;98951.79;;;;
2021/09/26 14:15:55;;;;;;;9.1;4.2;;;;;;;22.06;100;98944.6;;;;
2021/09/26 14:25:56;;;;;;;6.6;4.8;;;;;;;21.76;100;98943.81;;;;
2021/09/26 14:35:56;;;;;;;6;4.4;;;;;;;21.66;100;98938.95;;;;
2021/09/26 14:45:57;;;;;;;7;3.7;;;;;;;21.54;100;98929.02;;;;
2021/09/26 14:55:58;;;;;;;6.2;3.9;;;;;;;21.07;100;98928.68;;;;
2021/09/26 15:05:58;;;;;;;8.4;4.8;;;;;;;20.8;100;98929.81;;;;
2021/09/26 15:15:59;;;;;;;8;4.5;;;;;;;20.43;100;98924.1;;;;
2021/09/26 15:25:59;;;;;;;7.9;5;;;;;;;20.15;100;98923.55;;;;
2021/09/26 15:35:59;;;;;;;7.5;5.1;;;;;;;20.07;100;98906.2;;;;
2021/09/26 15:46:00;;;;;;;8;5.5;;;;;;;19.82;100;98908.44;;;;
2021/09/26 15:56:00;;;;;;;7.1;4.4;;;;;;;19.41;100;98909.14;;;;
2021/09/26 16:06:00;;;;;;;7.8;4.3;;;;;;;19.55;100;98903.98;;;;
2021/09/26 16:16:01;;;;;;;11;5.1;;;;;;;19.28;100;98907.66;;;;
2021/09/26 16:26:01;;;;;;;7.4;4.6;;;;;;;18.85;100;98903.14;;;;
2021/09/26 16:36:01;;;;;;;6.4;4.6;;;;;;;18.41;100;98896.96;;;;
2021/09/26 16:46:01;;;;;;;6;4.3;;;;;;;18.16;100;98917.34;;;;
2021/09/26 16:56:01;;;;;;;7.4;5.3;;;;;;;17.78;100;98910.47;;;;
2021/09/26 17:06:02;;;;;;;7.1;5.1;;;;;;;17.63;100;98913.16;;;;
2021/09/26 17:16:01;;;;;;;7.3;6.1;;;;;;;17.45;100;98920.78;;;;
2021/09/26 17:26:01;;;;;;;9.7;6.3;;;;;;;17.3;100;98918.75;;;;
2021/09/26 17:36:01;;;;;;;15.7;5.9;;;;;;;17.13;100;98911.63;;;;
2021/09/26 17:46:01;;;;;;;10.2;8;;;;;;;16.98;100;98920.48;;;;
2021/09/26 17:56:01;;;;;;;13.1;8.4;;;;;;;16.82;100;98914.14;;;;
2021/09/26 18:06:01;;;;;;;12.9;8;;;;;;;16.59;100;98913.8;;;;
2021/09/26 18:16:00;;;;;;;9.7;6.7;;;;;;;16.47;100;98909.1;;;;
2021/09/26 18:26:00;;;;;;;9.6;6.3;;;;;;;16.34;100;98928.46;;;;
2021/09/26 18:36:02;;;;;;;10.4;8.8;;;;;;;16.2;100;98930.69;;;;
2021/09/26 18:46:00;;;;;;;18.8;8.1;;;;;;;16.05;100;98927.47;;;;
2021/09/26 18:56:00;;;;;;;10.3;7;;;;;;;15.92;100;98944.87;;;;
2021/09/26 19:06:00;;;;;;;11.6;8.7;;;;;;;15.81;100;98954.55;;;;
2021/09/26 19:16:00;;;;;;;13.5;10.1;;;;;;;15.54;100;98949.66;;;;
2021/09/26 19:25:59;;;;;;;11.7;9.3;;;;;;;15.34;100;98943.03;;;;
2021/09/26 19:35:59;;;;;;;8.7;6.5;;;;;;;15.16;100;98940.77;;;;
2021/09/26 19:45:59;;;;;;;8.3;6.1;;;;;;;14.98;100;98937.36;;;;
2021/09/26 19:56:02;;;;;;;10.7;7.2;;;;;;;14.89;100;98936.62;;;;
2021/09/26 20:05:58;;;;;;;10.7;6.6;;;;;;;14.69;100;98935.41;;;;
2021/09/26 20:15:57;;;;;;;12.9;7.7;;;;;;;14.59;100;98938.48;;;;
2021/09/26 20:25:57;;;;;;;11.6;8.7;;;;;;;14.51;100;98953.66;;;;
2021/09/26 20:35:57;;;;;;;12.6;8.6;;;;;;;14.4;100;98948.93;;;;
2021/09/26 20:45:56;;;;;;;14.1;10.1;;;;;;;14.22;100;98956.27;;;;
2021/09/26 20:55:56;;;;;;;11.2;9.8;;;;;;;13.98;100;98954.08;;;;
2021/09/26 21:05:55;;;;;;;11.2;10.1;;;;;;;13.98;100;98962.21;;;;
2021/09/26 21:15:54;;;;;;;10.6;9.2;;;;;;;13.89;100;98964.11;;;;
2021/09/26 21:25:54;;;;;;;13.2;10.6;;;;;;;13.81;100;98970.34;;;;
2021/09/26 21:35:53;;;;;;;16.9;13.6;;;;;;;13.78;100;98953.94;;;;
2021/09/26 21:45:53;;;;;;;18;12.9;;;;;;;13.85;100;98959.67;;;;
2021/09/26 21:55:52;;;;;;;22.5;17;;;;;;;13.9;100;98954.88;;;;
2021/09/26 22:05:52;;;;;;;17.5;15.7;;;;;;;13.9;100;98946.75;;;;
2021/09/26 22:15:51;;;;;;;15.7;14;;;;;;;13.96;100;98937.33;;;;
2021/09/26 22:25:51;;;;;;;17.3;14.6;;;;;;;13.97;100;98928.09;;;;
2021/09/26 22:35:51;;;;;;;16.7;14.9;;;;;;;13.96;100;98912.14;;;;
2021/09/26 22:45:50;;;;;;;22.6;17.9;;;;;;;13.96;100;98910.23;;;;
2021/09/26 22:55:49;;;;;;;17.7;15.9;;;;;;;13.88;100;98902.9;;;;
2021/09/26 23:05:49;;;;;;;24.5;15.2;;;;;;;13.92;100;98913.89;;;;
2021/09/26 23:15:49;;;;;;;21.7;17.5;;;;;;;13.8;100;98897.51;;;;
2021/09/26 23:25:48;;;;;;;18.6;14.6;;;;;;;13.92;100;98903.86;;;;
2021/09/26 23:35:48;;;;;;;16.9;15.1;;;;;;;13.97;100;98908.32;;;;
2021/09/26 23:45:48;;;;;;;19.6;15;;;;;;;13.97;100;98895.57;;;;
2021/09/26 23:55:47;;;;;;;19.5;16.6;;;;;;;13.82;100;98892.55;;;;
